Time;durP1;ratioP1;P1;durP2;ratioP2;P2;SDS_P1;SDS_P2;PMS_P1;PMS_P2;Temp;Humidity;BMP_temperature;BMP_pressure;BME280_temperature;BME280_humidity;BME280_pressure;Samples;Min_cycle;Max_cycle;Signal;HPM_P1;HPM_P2
2022/01/17 00:00:39;;;;;;;55.88;49.97;;;;;;;-145.93;100.00;59239.47;4916887;29;20065;-87
2022/01/17 00:03:04;;;;;;;;;;;;;;;-145.93;100.00;59239.47;4922567;29;20045;-86
2022/01/17 00:05:30;;;;;;;53.67;48.22;;;;;;;-145.93;100.00;59239.47;4908890;29;19903;-87
2022/01/17 00:07:56;;;;;;;54.28;49.05;;;;;;;-145.93;100.00;59239.47;4908079;29;20016;-88
2022/01/17 00:10:21;;;;;;;60.53;49.95;;;;;;;-145.93;100.00;59239.47;4952862;23;20051;-83
2022/01/17 00:12:50;;;;;;;60.57;49.40;;;;;;;-145.93;100.00;59239.47;4930237;29;20039;-85
2022/01/17 00:15:26;;;;;;;54.30;48.58;;;;;;;-145.93;100.00;59239.47;4924886;29;20019;-84
2022/01/17 00:18:08;;;;;;;61.42;49.58;;;;;;;-145.93;100.00;59239.47;4941340;29;20035;-85
2022/01/17 00:23:01;;;;;;;59.90;49.90;;;;;;;-145.93;100.00;59239.47;4948550;29;20047;-82
2022/01/17 00:25:26;;;;;;;54.27;48.43;;;;;;;-145.93;100.00;59239.47;4933470;29;20083;-80
2022/01/17 00:27:51;;;;;;;57.93;49.37;;;;;;;-145.93;100.00;59239.47;4895227;29;20028;-80
2022/01/17 00:30:17;;;;;;;64.77;51.23;;;;;;;-145.93;100.00;59239.47;4917564;29;20070;-81
2022/01/17 00:32:42;;;;;;;70.53;51.33;;;;;;;-145.93;100.00;59239.47;4908141;29;20039;-81
2022/01/17 00:35:08;;;;;;;59.43;49.17;;;;;;;-145.93;100.00;59239.47;4913766;29;20038;-81
2022/01/17 00:37:34;;;;;;;55.35;48.60;;;;;;;-145.93;100.00;59239.47;4922610;29;20028;-81
2022/01/17 00:39:59;;;;;;;58.57;49.87;;;;;;;-145.93;100.00;59239.47;4906912;29;20709;-80
2022/01/17 00:42:24;;;;;;;55.60;49.47;;;;;;;-145.93;100.00;59239.47;4907397;29;20126;-80
2022/01/17 00:44:50;;;;;;;64.50;50.17;;;;;;;-145.93;100.00;59239.47;4911014;29;20030;-81
2022/01/17 00:47:15;;;;;;;58.40;49.13;;;;;;;-145.93;100.00;59239.47;4906417;29;20124;-81
2022/01/17 00:49:41;;;;;;;54.07;48.17;;;;;;;-145.93;100.00;59239.47;4920931;29;20102;-82
2022/01/17 00:52:07;;;;;;;61.75;50.08;;;;;;;-145.93;100.00;59239.47;4928339;29;20464;-81
2022/01/17 00:54:32;;;;;;;62.27;50.33;;;;;;;-145.93;100.00;59239.47;4910851;29;20070;-81
2022/01/17 00:56:58;;;;;;;54.77;48.93;;;;;;;-145.93;100.00;59239.47;4915586;29;20103;-81
2022/01/17 00:59:23;;;;;;;55.72;48.85;;;;;;;-145.93;100.00;59239.47;4931059;29;20062;-82
2022/01/17 01:01:49;;;;;;;56.97;49.87;;;;;;;-145.93;100.00;59239.47;4912204;29;20063;-82
2022/01/17 01:04:14;;;;;;;58.93;48.53;;;;;;;-145.93;100.00;59239.47;4932323;29;20023;-82
2022/01/17 01:06:39;;;;;;;58.80;49.27;;;;;;;-145.93;100.00;59239.47;4912410;29;20031;-81
2022/01/17 01:09:05;;;;;;;57.67;51.23;;;;;;;-145.93;100.00;59239.47;4925868;29;20034;-82
2022/01/17 01:11:30;;;;;;;74.80;51.93;;;;;;;-145.93;100.00;59239.47;4910189;29;20051;-82
2022/01/17 01:13:56;;;;;;;54.30;48.73;;;;;;;-145.93;100.00;59239.47;4911019;29;20051;-82
2022/01/17 01:16:30;;;;;;;57.03;49.50;;;;;;;-145.93;100.00;59239.47;4917627;29;20028;-81
2022/01/17 01:29:47;;;;;;;59.65;49.70;;;;;;;-145.93;100.00;59239.47;4933568;29;20047;-82
2022/01/17 01:32:14;;;;;;;56.00;49.28;;;;;;;-145.93;100.00;59239.47;4913171;29;20042;-81
2022/01/17 01:34:45;;;;;;;57.63;49.15;;;;;;;-145.93;100.00;59239.47;4928155;29;20024;-82
2022/01/17 01:37:11;;;;;;;59.50;49.08;;;;;;;-145.93;100.00;59239.47;4930307;29;20122;-81
2022/01/17 01:39:38;;;;;;;54.38;48.60;;;;;;;-145.93;100.00;59239.47;4898984;29;20038;-81
2022/01/17 01:42:04;;;;;;;;;;;;;;;-145.93;100.00;59239.47;4925436;29;20123;-82
2022/01/17 01:44:29;;;;;;;60.40;49.78;;;;;;;-145.93;100.00;59239.47;4912199;29;19915;-82
2022/01/17 01:46:56;;;;;;;54.57;48.63;;;;;;;-145.93;100.00;59239.47;4929272;29;20836;-83
2022/01/17 01:49:22;;;;;;;58.83;50.53;;;;;;;-145.93;100.00;59239.47;4915447;29;20462;-82
2022/01/17 01:51:47;;;;;;;57.75;49.78;;;;;;;-145.93;100.00;59239.47;4925235;29;20020;-83
2022/01/17 01:54:14;;;;;;;59.88;49.88;;;;;;;-145.93;100.00;59239.47;4910031;29;20028;-83
2022/01/17 01:56:43;;;;;;;62.85;49.17;;;;;;;-145.93;100.00;59239.47;4916655;29;20023;-82
2022/01/17 01:59:08;;;;;;;63.95;51.40;;;;;;;-145.93;100.00;59239.47;4935911;29;20046;-82
2022/01/17 02:01:34;;;;;;;65.40;50.30;;;;;;;-145.93;100.00;59239.47;4911636;29;20032;-82
2022/01/17 02:04:00;;;;;;;55.50;49.60;;;;;;;-145.93;100.00;59239.47;4921714;29;20031;-80
2022/01/17 02:06:25;;;;;;;56.38;50.03;;;;;;;-145.93;100.00;59239.47;4925148;29;20047;-80
2022/01/17 02:08:51;;;;;;;57.53;49.80;;;;;;;-145.93;100.00;59239.47;4931368;29;20038;-81
2022/01/17 02:11:17;;;;;;;56.07;49.20;;;;;;;-145.93;100.00;59239.47;4929536;29;20035;-81
2022/01/17 02:13:42;;;;;;;61.90;50.30;;;;;;;-145.93;100.00;59239.47;4916830;29;20030;-82
2022/01/17 02:16:10;;;;;;;62.80;50.63;;;;;;;-145.93;100.00;59239.47;4919702;29;20513;-80
2022/01/17 02:18:37;;;;;;;58.05;50.05;;;;;;;-145.93;100.00;59239.47;4917853;29;20065;-80
2022/01/17 02:23:38;;;;;;;59.35;49.28;;;;;;;-145.93;100.00;59239.47;4930069;29;20044;-81
2022/01/17 02:26:04;;;;;;;62.13;48.92;;;;;;;-145.93;100.00;59239.47;4911013;29;20039;-81
2022/01/17 02:28:33;;;;;;;61.83;49.63;;;;;;;-145.93;100.00;59239.47;4918586;29;20035;-81
2022/01/17 02:30:58;;;;;;;71.45;50.85;;;;;;;-145.93;100.00;59239.47;4909994;29;20032;-81
2022/01/17 02:33:24;;;;;;;65.20;50.77;;;;;;;-145.93;100.00;59239.47;4925453;29;20031;-80
2022/01/17 02:35:49;;;;;;;65.43;50.83;;;;;;;-145.93;100.00;59239.47;4932017;29;20397;-82
2022/01/17 02:38:15;;;;;;;66.60;50.80;;;;;;;-145.93;100.00;59239.47;4918923;29;20033;-81
2022/01/17 02:40:40;;;;;;;68.87;53.17;;;;;;;-145.93;100.00;59239.47;4925572;29;20028;-80
2022/01/17 02:43:07;;;;;;;62.97;52.47;;;;;;;-145.93;100.00;59239.47;4921814;29;20036;-81
2022/01/17 02:46:24;;;;;;;55.13;48.47;;;;;;;-145.93;100.00;59239.47;4939273;29;20698;-80
2022/01/17 02:48:29;;;;;;;63.38;50.60;;;;;;;-145.93;100.00;59239.47;4947736;29;20441;-81
2022/01/17 02:50:56;;;;;;;62.00;50.83;;;;;;;-145.93;100.00;59239.47;4913804;29;20024;-81
2022/01/17 02:53:21;;;;;;;77.53;51.05;;;;;;;-145.93;100.00;59239.47;4920970;29;20019;-80
2022/01/17 02:55:57;;;;;;;58.93;49.23;;;;;;;-145.93;100.00;59239.47;4932758;29;20043;-81
2022/01/17 02:58:25;;;;;;;67.57;50.10;;;;;;;-145.93;100.00;59239.47;4915689;29;20031;-82
2022/01/17 03:00:52;;;;;;;72.22;52.00;;;;;;;-145.93;100.00;59239.47;4917710;29;20035;-80
2022/01/17 03:03:23;;;;;;;59.30;50.63;;;;;;;-145.93;100.00;59239.47;4928172;29;20028;-81
2022/01/17 03:05:49;;;;;;;65.28;51.58;;;;;;;-145.93;100.00;59239.47;4920477;29;20032;-81
2022/01/17 03:08:17;;;;;;;66.25;52.63;;;;;;;-145.93;100.00;59239.47;4919814;29;20028;-80
2022/01/17 03:10:46;;;;;;;64.82;51.92;;;;;;;-145.93;100.00;59239.47;4915608;29;20533;-81
2022/01/17 03:13:16;;;;;;;57.65;49.20;;;;;;;-145.93;100.00;59239.47;4912246;29;20036;-82
2022/01/17 03:15:44;;;;;;;60.92;50.63;;;;;;;-145.93;100.00;59239.47;4905846;29;20050;-81
2022/01/17 03:18:10;;;;;;;61.88;49.58;;;;;;;-145.93;100.00;59239.47;4900265;29;20030;-81
2022/01/17 03:20:37;;;;;;;69.20;52.25;;;;;;;-145.93;100.00;59239.47;4918379;29;20030;-80
2022/01/17 03:23:02;;;;;;;57.58;50.22;;;;;;;-145.93;100.00;59239.47;4907517;29;20401;-79
2022/01/17 03:25:28;;;;;;;56.27;50.03;;;;;;;-145.93;100.00;59239.47;4924299;29;20031;-81
2022/01/17 03:27:54;;;;;;;56.75;49.67;;;;;;;-145.93;100.00;59239.47;4907527;29;20023;-80
2022/01/17 03:30:19;;;;;;;66.87;50.67;;;;;;;-145.93;100.00;59239.47;4909648;29;20031;-80
2022/01/17 03:32:45;;;;;;;76.77;53.33;;;;;;;-145.93;100.00;59239.47;4936679;29;20035;-80
2022/01/17 03:35:10;;;;;;;58.00;49.28;;;;;;;-145.93;100.00;59239.47;4925415;29;20035;-81
2022/01/17 03:37:36;;;;;;;66.67;49.87;;;;;;;-145.93;100.00;59239.47;4904095;29;20481;-81
2022/01/17 03:40:03;;;;;;;54.83;48.90;;;;;;;-145.93;100.00;59239.47;4916459;29;20027;-83
2022/01/17 03:42:28;;;;;;;67.93;51.22;;;;;;;-145.93;100.00;59239.47;4910631;29;20043;-83
2022/01/17 03:44:54;;;;;;;57.90;50.23;;;;;;;-145.93;100.00;59239.47;4914505;29;20016;-83
2022/01/17 03:47:20;;;;;;;55.50;49.50;;;;;;;-145.93;100.00;59239.47;4910143;29;20035;-81
2022/01/17 03:49:45;;;;;;;66.17;49.60;;;;;;;-145.93;100.00;59239.47;4934935;29;20808;-83
2022/01/17 03:52:10;;;;;;;59.40;48.80;;;;;;;-145.93;100.00;59239.47;4915311;29;20476;-81
2022/01/17 03:54:36;;;;;;;59.73;49.43;;;;;;;-145.93;100.00;59239.47;4912729;29;20023;-81
2022/01/17 03:57:01;;;;;;;59.70;50.07;;;;;;;-145.93;100.00;59239.47;4933659;29;20448;-83
2022/01/17 03:59:27;;;;;;;63.23;50.80;;;;;;;-145.93;100.00;59239.47;4937393;29;20039;-83
2022/01/17 04:01:53;;;;;;;64.15;50.80;;;;;;;-145.93;100.00;59239.47;4910117;29;20063;-81
2022/01/17 04:04:18;;;;;;;61.73;50.17;;;;;;;-145.93;100.00;59239.47;4909938;29;20031;-82
2022/01/17 04:06:44;;;;;;;61.07;50.03;;;;;;;-145.93;100.00;59239.47;4930791;29;20024;-82
2022/01/17 04:09:10;;;;;;;71.83;51.60;;;;;;;-145.93;100.00;59239.47;4911901;29;20597;-82
2022/01/17 04:11:36;;;;;;;59.83;49.80;;;;;;;-145.93;100.00;59239.47;4911669;29;20024;-82
2022/01/17 04:14:01;;;;;;;57.97;48.95;;;;;;;-145.93;100.00;59239.47;4911711;29;20032;-81
2022/01/17 04:16:27;;;;;;;57.53;49.13;;;;;;;-145.93;100.00;59239.47;4928398;29;20034;-82
2022/01/17 04:18:54;;;;;;;61.40;50.60;;;;;;;-145.93;100.00;59239.47;4917464;29;20386;-82
2022/01/17 04:21:19;;;;;;;63.33;51.00;;;;;;;-145.93;100.00;59239.47;4920050;29;20454;-82
2022/01/17 04:23:45;;;;;;;59.07;50.23;;;;;;;-145.93;100.00;59239.47;4923045;29;20031;-82
2022/01/17 04:26:10;;;;;;;60.60;49.57;;;;;;;-145.93;100.00;59239.47;4932869;29;20039;-81
2022/01/17 04:28:36;;;;;;;54.40;48.63;;;;;;;-145.93;100.00;59239.47;4947796;28;20055;-81
2022/01/17 04:31:01;;;;;;;67.37;50.90;;;;;;;-145.93;100.00;59239.47;4931163;29;20099;-82
2022/01/17 04:33:26;;;;;;;62.20;51.93;;;;;;;-145.93;100.00;59239.47;4925810;29;20028;-80
2022/01/17 04:35:52;;;;;;;74.57;50.60;;;;;;;-145.93;100.00;59239.47;4929047;28;20035;-80
2022/01/17 04:38:18;;;;;;;54.55;48.97;;;;;;;-145.93;100.00;59239.47;4928474;29;20032;-81
2022/01/17 04:40:47;;;;;;;69.55;52.38;;;;;;;-145.93;100.00;59239.47;4933148;29;20246;-81
2022/01/17 04:43:43;;;;;;;56.22;50.13;;;;;;;-145.93;100.00;59239.47;4918490;29;20028;-82
2022/01/17 04:46:07;;;;;;;55.03;49.10;;;;;;;-145.93;100.00;59239.47;4929365;29;20046;-81
2022/01/17 04:48:34;;;;;;;55.45;49.38;;;;;;;-145.93;100.00;59239.47;4913245;29;20031;-81
2022/01/17 04:50:59;;;;;;;;;;;;;;;-145.93;100.00;59239.47;4911165;29;20078;-82
2022/01/17 04:53:29;;;;;;;59.42;50.15;;;;;;;-145.93;100.00;59239.47;4918782;29;19919;-82
2022/01/17 04:55:55;;;;;;;58.25;49.35;;;;;;;-145.93;100.00;59239.47;4907119;29;20046;-83
2022/01/17 04:58:20;;;;;;;62.08;50.38;;;;;;;-145.93;100.00;59239.47;4914918;29;20480;-82
2022/01/17 05:00:46;;;;;;;63.83;50.77;;;;;;;-145.93;100.00;59239.47;4905703;29;20538;-82
2022/01/17 05:03:19;;;;;;;54.90;49.33;;;;;;;-145.93;100.00;59239.47;4921449;29;20400;-83
2022/01/17 05:05:45;;;;;;;62.03;50.28;;;;;;;-145.93;100.00;59239.47;4904161;29;20036;-82
2022/01/17 05:08:11;;;;;;;59.47;50.45;;;;;;;-145.93;100.00;59239.47;4907567;29;20046;-82
2022/01/17 05:10:37;;;;;;;82.35;52.83;;;;;;;-145.93;100.00;59239.47;4926900;29;20182;-83
2022/01/17 05:13:02;;;;;;;65.03;50.87;;;;;;;-145.93;100.00;59239.47;4907525;29;20521;-80
2022/01/17 05:15:45;;;;;;;63.72;51.55;;;;;;;-145.93;100.00;59239.47;4906117;29;20032;-80
2022/01/17 05:20:39;;;;;;;77.67;53.30;;;;;;;-145.93;100.00;59239.47;4919621;29;20516;-81
2022/01/17 05:23:05;;;;;;;63.83;50.60;;;;;;;-145.93;100.00;59239.47;4906722;29;20123;-81
2022/01/17 05:25:30;;;;;;;59.78;50.78;;;;;;;-145.93;100.00;59239.47;4923932;29;20089;-81
2022/01/17 05:27:56;;;;;;;56.60;50.47;;;;;;;-145.93;100.00;59239.47;4905226;29;20126;-80
2022/01/17 05:30:23;;;;;;;73.23;53.43;;;;;;;-145.93;100.00;59239.47;4904460;29;20039;-81
2022/01/17 05:32:49;;;;;;;74.13;53.42;;;;;;;-145.93;100.00;59239.47;4901314;29;20024;-81
2022/01/17 05:35:16;;;;;;;64.32;51.30;;;;;;;-145.93;100.00;59239.47;4930215;29;20030;-78
2022/01/17 05:37:42;;;;;;;57.40;50.33;;;;;;;-145.93;100.00;59239.47;4926751;29;20031;-81
2022/01/17 05:40:09;;;;;;;64.45;51.78;;;;;;;-145.93;100.00;59239.47;4913126;29;20047;-79
2022/01/17 05:42:35;;;;;;;78.88;53.65;;;;;;;-145.93;100.00;59239.47;4927338;29;20039;-76
2022/01/17 05:45:00;;;;;;;64.17;51.17;;;;;;;-145.93;100.00;59239.47;4924001;29;20034;-78
2022/01/17 05:47:26;;;;;;;89.50;52.85;;;;;;;-145.93;100.00;59239.47;4927235;29;20028;-77
2022/01/17 05:49:51;;;;;;;63.53;51.53;;;;;;;-145.93;100.00;59239.47;4913295;29;20035;-79
2022/01/17 05:52:17;;;;;;;68.23;51.83;;;;;;;-145.93;100.00;59239.47;4928998;29;20062;-80
2022/01/17 05:54:43;;;;;;;82.40;52.97;;;;;;;-145.93;100.00;59239.47;4933759;29;20023;-78
2022/01/17 05:57:08;;;;;;;72.95;51.25;;;;;;;-145.93;100.00;59239.47;4909678;29;20035;-77
2022/01/17 05:59:34;;;;;;;75.63;52.67;;;;;;;-145.93;100.00;59239.47;4900407;29;20031;-80
2022/01/17 06:01:59;;;;;;;60.80;50.53;;;;;;;-145.93;100.00;59239.47;4904890;29;20337;-78
2022/01/17 06:04:25;;;;;;;72.83;51.03;;;;;;;-145.93;100.00;59239.47;4907201;29;20025;-80
2022/01/17 06:06:50;;;;;;;56.23;50.30;;;;;;;-145.93;100.00;59239.47;4923765;29;20042;-81
2022/01/17 06:09:16;;;;;;;70.87;52.87;;;;;;;-145.93;100.00;59239.47;4902214;29;20039;-79
2022/01/17 06:11:41;;;;;;;64.47;51.20;;;;;;;-145.93;100.00;59239.47;4901685;29;20027;-80
2022/01/17 06:14:08;;;;;;;132.73;65.60;;;;;;;-145.93;100.00;59239.47;4914477;23;20040;-77
2022/01/17 06:16:35;;;;;;;64.03;51.20;;;;;;;-145.93;100.00;59239.47;4951343;28;20035;-78
2022/01/17 06:19:00;;;;;;;68.65;52.42;;;;;;;-145.93;100.00;59239.47;4947593;28;20019;-78
2022/01/17 06:21:25;;;;;;;57.60;49.40;;;;;;;-145.93;100.00;59239.47;4951097;28;20146;-79
2022/01/17 06:23:52;;;;;;;66.30;51.10;;;;;;;-145.93;100.00;59239.47;4931544;29;20024;-80
2022/01/17 06:26:18;;;;;;;67.25;51.22;;;;;;;-145.93;100.00;59239.47;4928823;28;20377;-80
2022/01/17 06:28:44;;;;;;;72.88;52.08;;;;;;;-145.93;100.00;59239.47;4944389;29;20397;-79
2022/01/17 06:31:09;;;;;;;74.70;54.83;;;;;;;-145.93;100.00;59239.47;4933287;29;20035;-79
2022/01/17 06:33:34;;;;;;;61.87;51.20;;;;;;;-145.93;100.00;59239.47;4937104;29;20023;-79
2022/01/17 06:36:00;;;;;;;64.63;51.50;;;;;;;-145.93;100.00;59239.47;4930424;29;20031;-79
2022/01/17 06:38:25;;;;;;;67.90;52.93;;;;;;;-145.93;100.00;59239.47;4923921;29;20083;-78
2022/01/17 06:40:51;;;;;;;79.67;51.40;;;;;;;-145.93;100.00;59239.47;4932605;29;20015;-79
2022/01/17 06:43:16;;;;;;;70.17;53.33;;;;;;;-145.93;100.00;59239.47;4928331;28;20027;-78
2022/01/17 06:45:43;;;;;;;98.87;59.03;;;;;;;-145.93;100.00;59239.47;4930821;29;20039;-79
2022/01/17 06:48:08;;;;;;;67.20;51.95;;;;;;;-145.93;100.00;59239.47;4936006;29;20027;-78
2022/01/17 06:50:34;;;;;;;78.93;54.67;;;;;;;-145.93;100.00;59239.47;4936772;29;20034;-78
2022/01/17 06:52:59;;;;;;;80.10;54.83;;;;;;;-145.93;100.00;59239.47;4933120;28;20038;-78
2022/01/17 06:55:25;;;;;;;68.80;51.77;;;;;;;-145.93;100.00;59239.47;4926725;28;20035;-80
2022/01/17 06:57:50;;;;;;;72.43;52.47;;;;;;;-145.93;100.00;59239.47;4933154;29;20124;-77
2022/01/17 07:00:16;;;;;;;74.47;53.47;;;;;;;-145.93;100.00;59239.47;4942526;29;20012;-79
2022/01/17 07:02:41;;;;;;;72.45;52.58;;;;;;;-145.93;100.00;59239.47;4944895;29;20313;-78
2022/01/17 07:05:07;;;;;;;71.57;52.47;;;;;;;-145.93;100.00;59239.47;4939118;29;20054;-80
2022/01/17 07:07:33;;;;;;;71.70;52.10;;;;;;;-145.93;100.00;59239.47;4944835;29;20031;-79
2022/01/17 07:09:58;;;;;;;75.80;52.77;;;;;;;-145.93;100.00;59239.47;4931265;29;20042;-79
2022/01/17 07:12:23;;;;;;;67.30;52.47;;;;;;;-145.93;100.00;59239.47;4933812;29;20309;-80
2022/01/17 07:14:49;;;;;;;90.67;55.83;;;;;;;-145.93;100.00;59239.47;4924972;29;20035;-79
2022/01/17 07:17:14;;;;;;;78.47;53.37;;;;;;;-145.93;100.00;59239.47;4934943;29;20122;-79
2022/01/17 07:19:40;;;;;;;62.80;51.50;;;;;;;-145.93;100.00;59239.47;4947517;29;20038;-80
2022/01/17 07:22:06;;;;;;;85.17;55.43;;;;;;;-145.93;100.00;59239.47;4928732;28;20030;-83
2022/01/17 07:24:32;;;;;;;83.82;53.17;;;;;;;-145.93;100.00;59239.47;4928172;29;20042;-84
2022/01/17 07:26:58;;;;;;;70.15;53.00;;;;;;;-145.93;100.00;59239.47;4921586;29;20036;-79
2022/01/17 07:29:24;;;;;;;70.00;51.57;;;;;;;-145.93;100.00;59239.47;4931475;29;20042;-83
2022/01/17 07:31:49;;;;;;;75.78;52.72;;;;;;;-145.93;100.00;59239.47;4933097;28;20030;-83
2022/01/17 07:34:15;;;;;;;73.23;52.40;;;;;;;-145.93;100.00;59239.47;4941194;28;20031;-82
2022/01/17 07:36:40;;;;;;;61.07;50.50;;;;;;;-145.93;100.00;59239.47;4926091;29;20062;-82
2022/01/17 07:39:09;;;;;;;70.67;52.57;;;;;;;-145.93;100.00;59239.47;4925052;28;20042;-77
2022/01/17 07:41:35;;;;;;;75.35;52.90;;;;;;;-145.93;100.00;59239.47;4946252;29;20115;-80
2022/01/17 07:44:02;;;;;;;66.05;52.42;;;;;;;-145.93;100.00;59239.47;4925799;29;20043;-80
2022/01/17 07:46:35;;;;;;;67.05;53.05;;;;;;;-145.93;100.00;59239.47;4922666;28;20071;-79
2022/01/17 07:49:11;;;;;;;69.78;53.05;;;;;;;-145.93;100.00;59239.47;4956206;29;20062;-78
2022/01/17 07:51:59;;;;;;;67.20;51.88;;;;;;;-145.93;100.00;59239.47;4950474;28;20027;-83
2022/01/17 07:54:30;;;;;;;75.18;52.20;;;;;;;-145.93;100.00;59239.47;4933759;29;20053;-78
2022/01/17 07:56:57;;;;;;;66.40;51.40;;;;;;;-145.93;100.00;59239.47;4928846;29;20034;-79
2022/01/17 07:59:22;;;;;;;63.80;52.03;;;;;;;-145.93;100.00;59239.47;4964569;29;20031;-82
2022/01/17 08:01:47;;;;;;;68.47;52.87;;;;;;;-145.93;100.00;59239.47;4946750;28;20065;-79
2022/01/17 08:04:13;;;;;;;66.20;51.73;;;;;;;-145.93;100.00;59239.47;4923317;29;20038;-81
2022/01/17 08:06:39;;;;;;;76.93;53.60;;;;;;;-145.93;100.00;59239.47;4934866;28;20015;-78
2022/01/17 08:09:14;;;;;;;66.00;53.13;;;;;;;-145.93;100.00;59239.47;4927097;28;20039;-78
2022/01/17 08:11:39;;;;;;;60.80;50.33;;;;;;;-145.93;100.00;59239.47;4942653;29;20402;-80
2022/01/17 08:14:04;;;;;;;71.93;52.80;;;;;;;-145.93;100.00;59239.47;4958462;28;20051;-79
2022/01/17 08:16:30;;;;;;;67.73;51.97;;;;;;;-145.93;100.00;59239.47;4925118;29;20063;-81
2022/01/17 08:18:55;;;;;;;74.33;52.43;;;;;;;-145.93;100.00;59239.47;4922657;29;20614;-78
2022/01/17 08:21:21;;;;;;;79.13;52.67;;;;;;;-145.93;100.00;59239.47;4926296;29;20421;-80
2022/01/17 08:23:47;;;;;;;61.95;51.00;;;;;;;-145.93;100.00;59239.47;4928441;29;20035;-83
2022/01/17 08:26:12;;;;;;;82.60;53.93;;;;;;;-145.93;100.00;59239.47;4929462;29;20137;-81
2022/01/17 08:28:38;;;;;;;73.80;54.37;;;;;;;-145.93;100.00;59239.47;4932951;29;20023;-79
2022/01/17 08:31:03;;;;;;;65.00;50.33;;;;;;;-145.93;100.00;59239.47;4928599;29;20057;-77
2022/01/17 08:33:29;;;;;;;73.13;51.83;;;;;;;-145.93;100.00;59239.47;4940656;29;21004;-79
2022/01/17 08:35:54;;;;;;;87.00;56.80;;;;;;;-145.93;100.00;59239.47;4936046;29;20066;-78
2022/01/17 08:38:19;;;;;;;73.10;52.77;;;;;;;-145.93;100.00;59239.47;4941396;29;20027;-79
2022/01/17 08:40:45;;;;;;;61.40;52.67;;;;;;;-145.93;100.00;59239.47;4912844;29;20093;-80
2022/01/17 08:43:10;;;;;;;68.00;52.20;;;;;;;-145.93;100.00;59239.47;4907637;29;20454;-77
2022/01/17 08:45:35;;;;;;;75.70;52.67;;;;;;;-145.93;100.00;59239.47;4923566;29;20023;-76
2022/01/17 08:48:01;;;;;;;64.57;52.43;;;;;;;-145.93;100.00;59239.47;4922544;29;20023;-79
2022/01/17 08:50:27;;;;;;;80.53;55.33;;;;;;;-145.93;100.00;59239.47;4926993;29;20035;-76
2022/01/17 08:52:52;;;;;;;83.10;55.67;;;;;;;-145.93;100.00;59239.47;4920125;29;20020;-79
2022/01/17 08:55:18;;;;;;;74.57;53.35;;;;;;;-145.93;100.00;59239.47;4921844;29;20547;-80
2022/01/17 08:57:44;;;;;;;73.45;53.95;;;;;;;-145.93;100.00;59239.47;4931221;29;20044;-80
2022/01/17 09:00:13;;;;;;;73.00;53.65;;;;;;;-145.93;100.00;59239.47;4933358;29;20039;-76
2022/01/17 09:02:39;;;;;;;69.45;52.05;;;;;;;-145.93;100.00;59239.47;4933082;29;20027;-81
2022/01/17 09:05:04;;;;;;;80.88;54.53;;;;;;;-145.93;100.00;59239.47;4933920;29;20039;-80
2022/01/17 09:07:29;;;;;;;74.87;53.17;;;;;;;-145.93;100.00;59239.47;4928827;29;20039;-78
2022/01/17 09:09:55;;;;;;;68.77;52.00;;;;;;;-145.93;100.00;59239.47;4919687;29;20027;-78
2022/01/17 09:12:20;;;;;;;68.20;53.60;;;;;;;-145.93;100.00;59239.47;4918703;29;20503;-79
2022/01/17 09:14:46;;;;;;;88.40;57.77;;;;;;;-145.93;100.00;59239.47;4940052;28;20029;-81
2022/01/17 09:17:11;;;;;;;69.43;52.63;;;;;;;-145.93;100.00;59239.47;4935169;29;20068;-80
2022/01/17 09:19:38;;;;;;;63.05;52.50;;;;;;;-145.93;100.00;59239.47;4954688;28;20032;-79
2022/01/17 09:22:06;;;;;;;72.40;52.22;;;;;;;-145.93;100.00;59239.47;4947277;29;20055;-78
2022/01/17 09:24:32;;;;;;;76.13;54.50;;;;;;;-145.93;100.00;59239.47;4926690;29;20358;-79
2022/01/17 09:26:57;;;;;;;68.28;52.03;;;;;;;-145.93;100.00;59239.47;4925841;29;20023;-78
2022/01/17 09:29:23;;;;;;;85.17;55.80;;;;;;;-145.93;100.00;59239.47;4940320;28;20513;-79
2022/01/17 09:31:48;;;;;;;73.07;53.50;;;;;;;-145.93;100.00;59239.47;4928502;29;20027;-78
2022/01/17 09:34:14;;;;;;;76.60;54.13;;;;;;;-145.93;100.00;59239.47;4949642;28;20061;-78
2022/01/17 09:36:39;;;;;;;66.13;53.83;;;;;;;-145.93;100.00;59239.47;4925198;29;20828;-78
2022/01/17 09:39:06;;;;;;;74.73;53.30;;;;;;;-145.93;100.00;59239.47;4924553;29;20042;-78
2022/01/17 09:41:32;;;;;;;71.55;55.53;;;;;;;-145.93;100.00;59239.47;4913517;29;20130;-78
2022/01/17 09:43:58;;;;;;;62.80;52.28;;;;;;;-145.93;100.00;59239.47;4908328;29;20047;-79
2022/01/17 09:46:27;;;;;;;64.53;51.83;;;;;;;-145.93;100.00;59239.47;4906974;29;20064;-80
2022/01/17 09:49:00;;;;;;;59.25;51.05;;;;;;;-145.93;100.00;59239.47;4900710;29;20064;-80
2022/01/17 09:51:41;;;;;;;61.28;51.38;;;;;;;-145.93;100.00;59239.47;4908881;29;20028;-80
2022/01/17 09:54:08;;;;;;;61.67;52.05;;;;;;;-145.93;100.00;59239.47;4907482;29;20044;-79
2022/01/17 09:56:33;;;;;;;53.83;48.45;;;;;;;-145.93;100.00;59239.47;4913140;29;20032;-78
2022/01/17 09:58:59;;;;;;;61.10;52.15;;;;;;;-145.93;100.00;59239.47;4926366;29;20075;-77
2022/01/17 10:01:25;;;;;;;54.85;49.00;;;;;;;-145.93;100.00;59239.47;4920196;29;20037;-79
2022/01/17 10:03:56;;;;;;;57.35;50.30;;;;;;;-145.93;100.00;59239.47;4902496;29;20064;-78
2022/01/17 10:06:21;;;;;;;60.47;52.58;;;;;;;-145.93;100.00;59239.47;4900452;29;20031;-79
2022/01/17 10:08:47;;;;;;;57.87;50.17;;;;;;;-145.93;100.00;59239.47;4919230;29;20024;-78
2022/01/17 10:11:15;;;;;;;55.90;49.83;;;;;;;-145.93;100.00;59239.47;4921132;29;20032;-78
2022/01/17 10:13:45;;;;;;;56.72;50.78;;;;;;;-145.93;100.00;59239.47;4905303;29;20024;-78
2022/01/17 10:16:21;;;;;;;55.15;49.67;;;;;;;-145.93;100.00;59239.47;4920973;29;20046;-80
2022/01/17 10:18:49;;;;;;;54.97;49.33;;;;;;;-145.93;100.00;59239.47;4931669;29;20020;-77
2022/01/17 10:21:44;;;;;;;57.00;50.60;;;;;;;-145.93;100.00;59239.47;4900610;29;20063;-78
2022/01/17 10:24:24;;;;;;;64.22;52.05;;;;;;;-145.93;100.00;59239.47;4898194;29;20091;-78
2022/01/17 10:27:08;;;;;;;56.42;50.45;;;;;;;-145.93;100.00;59239.47;4901723;29;20024;-77
2022/01/17 10:35:18;;;;;;;60.90;51.63;;;;;;;-145.93;100.00;59239.47;4913815;29;20087;-78
2022/01/17 10:38:10;;;;;;;56.03;50.13;;;;;;;-145.93;100.00;59239.47;4899749;29;20024;-78
2022/01/17 10:40:41;;;;;;;58.38;51.70;;;;;;;-145.93;100.00;59239.47;4902670;29;20028;-79
2022/01/17 10:43:19;;;;;;;62.42;52.13;;;;;;;-145.93;100.00;59239.47;4920097;29;20132;-79
2022/01/17 10:45:44;;;;;;;63.00;50.97;;;;;;;-145.93;100.00;59239.47;4923152;29;20028;-79
2022/01/17 10:48:10;;;;;;;56.03;49.97;;;;;;;-145.93;100.00;59239.47;4928885;29;20029;-80
2022/01/17 10:50:50;;;;;;;57.55;49.85;;;;;;;-145.93;100.00;59239.47;4903528;29;20034;-80
2022/01/17 10:53:17;;;;;;;56.60;50.75;;;;;;;-145.93;100.00;59239.47;4904698;29;20044;-79
2022/01/17 10:55:51;;;;;;;90.03;57.30;;;;;;;-145.93;100.00;59239.47;4889836;29;20357;-78
2022/01/17 10:58:25;;;;;;;61.47;51.38;;;;;;;-145.93;100.00;59239.47;4907424;29;20088;-77
2022/01/17 11:00:54;;;;;;;62.90;52.40;;;;;;;-145.93;100.00;59239.47;4896903;29;20029;-77
2022/01/17 11:03:24;;;;;;;62.25;51.90;;;;;;;-145.93;100.00;59239.47;4899741;29;20028;-77
2022/01/17 11:05:52;;;;;;;69.65;53.78;;;;;;;-145.93;100.00;59239.47;4893829;29;20120;-77
2022/01/17 11:08:20;;;;;;;56.65;50.53;;;;;;;-145.93;100.00;59239.47;4905283;29;20044;-80
2022/01/17 11:10:47;;;;;;;57.47;50.78;;;;;;;-145.93;100.00;59239.47;4902614;29;20127;-77
2022/01/17 11:13:17;;;;;;;63.60;51.17;;;;;;;-145.93;100.00;59239.47;4919975;29;20123;-76
2022/01/17 11:15:46;;;;;;;65.68;50.63;;;;;;;-145.93;100.00;59239.47;4896843;29;20167;-81
2022/01/17 11:18:21;;;;;;;62.20;51.03;;;;;;;-145.93;100.00;59239.47;4939772;29;20020;-78